createdAt,value
2023-04-28T00:02:05.562Z,46.68
2023-04-28T00:04:35.408Z,46.88
2023-04-28T00:07:05.365Z,46.69
2023-04-28T00:09:35.311Z,46.26
2023-04-28T00:12:05.345Z,46.73
2023-04-28T00:14:34.897Z,46.82
2023-04-28T00:17:04.773Z,46.67
2023-04-28T00:19:34.566Z,46.83
2023-04-28T00:22:06.284Z,46.79
2023-04-28T00:24:36.557Z,46.46
2023-04-28T00:27:06.467Z,46.83
2023-04-28T00:29:36.852Z,46.78
2023-04-28T00:32:07.866Z,46.94
2023-04-28T00:34:37.831Z,47.20
2023-04-28T00:37:07.356Z,47.02
2023-04-28T00:39:37.456Z,46.90
2023-04-28T00:42:08.577Z,46.55
2023-04-28T00:44:38.585Z,47.15
2023-04-28T00:47:10.330Z,46.60
2023-04-28T00:49:40.447Z,46.36
2023-04-28T00:52:11.902Z,46.68
2023-04-28T00:54:43.586Z,46.92
2023-04-28T00:57:14.404Z,47.25
2023-04-28T00:59:44.251Z,47.07
2023-04-28T01:02:15.948Z,46.73
2023-04-28T01:04:47.662Z,47.26
2023-04-28T01:07:17.710Z,46.93
2023-04-28T01:09:47.974Z,47.20
2023-04-28T01:12:19.163Z,46.81
2023-04-28T01:14:51.679Z,47.08
2023-04-28T01:17:21.623Z,47.31
2023-04-28T01:19:53.009Z,47.30
2023-04-28T01:22:22.675Z,47.22
2023-04-28T01:24:52.496Z,47.86
2023-04-28T01:27:23.359Z,47.65
2023-04-28T01:29:53.362Z,48.15
2023-04-28T01:32:23.245Z,48.40
2023-04-28T01:34:53.061Z,49.01
2023-04-28T01:37:22.759Z,49.57
2023-04-28T01:39:52.547Z,50.34
2023-04-28T01:42:22.547Z,50.56
2023-04-28T01:44:52.352Z,51.63
2023-04-28T01:47:22.234Z,51.90
2023-04-28T01:49:52.162Z,52.17
2023-04-28T01:52:23.601Z,52.97
2023-04-28T01:54:53.901Z,52.61
2023-04-28T01:57:24.467Z,53.27
2023-04-28T01:59:54.496Z,53.31
2023-04-28T02:02:24.327Z,54.64
2023-04-28T02:04:54.340Z,53.46
2023-04-28T02:07:24.349Z,53.93
2023-04-28T02:09:54.215Z,54.55
2023-04-28T02:12:24.593Z,54.21
2023-04-28T02:14:54.484Z,54.47
2023-04-28T02:17:24.290Z,54.57
2023-04-28T02:19:58.184Z,54.56
2023-04-28T02:22:29.018Z,54.70
2023-04-28T02:24:59.304Z,54.41
2023-04-28T02:27:29.181Z,54.47
2023-04-28T02:29:58.664Z,54.48
2023-04-28T02:32:29.266Z,54.44
2023-04-28T02:34:59.113Z,54.41
2023-04-28T02:37:28.665Z,54.36
2023-04-28T02:39:58.511Z,54.23
2023-04-28T02:42:28.473Z,54.16
2023-04-28T02:44:58.351Z,54.18
2023-04-28T02:47:28.210Z,54.50
2023-04-28T02:49:58.285Z,54.50
2023-04-28T02:52:29.021Z,54.62
2023-04-28T02:54:59.252Z,54.95
2023-04-28T02:57:29.092Z,54.75
2023-04-28T02:59:59.284Z,54.81
2023-04-28T03:02:31.452Z,54.81
2023-04-28T03:05:01.750Z,54.88
2023-04-28T03:07:31.627Z,55.12
2023-04-28T03:10:01.517Z,54.99
2023-04-28T03:12:31.387Z,55.41
2023-04-28T03:15:01.757Z,54.80
2023-04-28T03:17:31.850Z,55.08
2023-04-28T03:20:01.760Z,54.81
2023-04-28T03:22:31.451Z,54.69
2023-04-28T03:25:01.807Z,54.96
2023-04-28T03:27:33.083Z,54.40
2023-04-28T03:30:07.664Z,54.66
2023-04-28T03:32:37.717Z,55.64
2023-04-28T03:35:08.003Z,55.64
2023-04-28T03:37:37.790Z,56.06
2023-04-28T03:40:08.506Z,55.69
2023-04-28T03:42:40.067Z,55.72
2023-04-28T03:45:11.976Z,55.67
2023-04-28T03:47:41.946Z,55.60
2023-04-28T03:50:13.353Z,56.15
2023-04-28T03:52:42.989Z,55.81
2023-04-28T03:55:12.569Z,56.50
2023-04-28T03:57:42.455Z,56.32
2023-04-28T04:00:12.677Z,56.35
2023-04-28T04:02:44.401Z,56.57
2023-04-28T04:05:14.526Z,56.98
2023-04-28T04:07:44.533Z,56.97
2023-04-28T04:10:14.821Z,56.76
2023-04-28T04:12:45.294Z,57.16
2023-04-28T04:15:14.902Z,57.36
2023-04-28T04:17:45.713Z,57.29
2023-04-28T04:20:18.434Z,57.85
2023-04-28T04:22:48.274Z,57.54
2023-04-28T04:25:17.822Z,57.83
2023-04-28T04:27:48.941Z,59.21
2023-04-28T04:30:18.897Z,59.01
2023-04-28T04:32:48.931Z,58.82
2023-04-28T04:35:18.651Z,59.29
2023-04-28T04:37:48.640Z,59.41
2023-04-28T04:40:18.741Z,58.79
2023-04-28T04:42:50.313Z,58.91
2023-04-28T04:45:21.544Z,59.04
2023-04-28T04:47:51.450Z,59.66
2023-04-28T04:50:21.270Z,59.93
2023-04-28T04:52:54.102Z,59.95
2023-04-28T04:55:24.774Z,59.83
2023-04-28T04:57:54.759Z,59.54
2023-04-28T05:00:42.045Z,59.88
2023-04-28T05:03:12.906Z,60.69
2023-04-28T05:05:44.949Z,61.01
2023-04-28T05:08:16.228Z,61.56
2023-04-28T05:10:46.250Z,61.57
2023-04-28T05:13:16.014Z,61.49
2023-04-28T05:15:45.892Z,62.03
2023-04-28T05:18:26.672Z,62.10
2023-04-28T05:20:56.186Z,63.77
2023-04-28T05:23:26.602Z,63.55
2023-04-28T05:25:57.528Z,63.67
2023-04-28T05:28:27.535Z,65.73
2023-04-28T05:30:57.691Z,65.73
2023-04-28T05:33:28.224Z,65.96
2023-04-28T05:35:58.282Z,65.70
2023-04-28T05:38:27.998Z,67.02
2023-04-28T05:40:58.365Z,68.72
2023-04-28T05:43:28.181Z,68.72
2023-04-28T05:45:58.239Z,70.00
2023-04-28T05:48:28.243Z,69.73
2023-04-28T05:50:58.077Z,69.72
2023-04-28T05:53:28.325Z,69.44
2023-04-28T05:55:58.343Z,70.14
2023-04-28T05:58:27.902Z,71.78
2023-04-28T06:00:57.987Z,71.44
2023-04-28T06:03:28.121Z,72.12
2023-04-28T06:05:58.778Z,73.42
2023-04-28T06:08:29.068Z,71.81
2023-04-28T06:10:58.596Z,73.22
2023-04-28T06:13:29.160Z,72.93
2023-04-28T06:15:59.572Z,73.70
2023-04-28T06:18:33.086Z,72.87
2023-04-28T06:21:03.634Z,73.40
2023-04-28T06:23:33.268Z,75.24
2023-04-28T06:26:03.238Z,77.29
2023-04-28T06:28:33.154Z,77.30
2023-04-28T06:31:03.156Z,76.97
2023-04-28T06:33:33.097Z,76.94
2023-04-28T06:36:04.511Z,78.60
2023-04-28T06:38:34.396Z,78.03
2023-04-28T06:41:04.297Z,77.97
2023-04-28T06:43:34.605Z,78.45
2023-04-28T06:46:13.481Z,78.88
2023-04-28T06:48:44.840Z,78.60
2023-04-28T06:51:15.643Z,78.77
2023-04-28T06:53:45.560Z,78.85
2023-04-28T06:56:16.030Z,78.47
2023-04-28T06:58:45.907Z,78.72
2023-04-28T07:01:15.601Z,78.66
2023-04-28T07:03:45.777Z,78.54
2023-04-28T07:06:16.718Z,77.89
2023-04-28T07:08:46.364Z,77.08
2023-04-28T07:11:16.548Z,76.56
2023-04-28T07:13:50.984Z,77.04
2023-04-28T07:16:22.129Z,76.37
2023-04-28T07:18:52.092Z,76.25
2023-04-28T07:21:22.174Z,77.09
2023-04-28T07:23:52.114Z,77.37
2023-04-28T07:26:21.634Z,77.74
2023-04-28T07:28:51.916Z,80.00
2023-04-28T07:31:21.901Z,80.45
2023-04-28T07:33:51.797Z,80.34
2023-04-28T07:36:22.347Z,80.74
2023-04-28T07:38:52.256Z,80.41
2023-04-28T07:41:22.793Z,79.49
2023-04-28T07:43:52.674Z,79.85
2023-04-28T07:46:23.922Z,79.60
2023-04-28T07:48:55.191Z,80.14
2023-04-28T07:51:25.169Z,80.17
2023-04-28T07:53:55.058Z,79.32
2023-04-28T07:56:26.486Z,78.78
2023-04-28T07:58:57.069Z,78.57
2023-04-28T08:01:26.899Z,79.33
2023-04-28T08:03:56.917Z,79.24
2023-04-28T08:06:26.763Z,77.34
2023-04-28T08:08:56.919Z,75.88
2023-04-28T08:11:26.804Z,74.59
2023-04-28T08:13:58.252Z,73.33
2023-04-28T08:16:28.324Z,73.33
2023-04-28T08:18:59.765Z,74.28
2023-04-28T08:21:29.775Z,74.32
2023-04-28T08:23:59.408Z,75.28
2023-04-28T08:26:29.346Z,76.61
2023-04-28T08:28:59.177Z,80.06
2023-04-28T08:31:29.375Z,81.11
2023-04-28T08:33:59.212Z,83.46
2023-04-28T08:36:30.799Z,86.60
2023-04-28T08:39:03.090Z,86.60
2023-04-28T08:41:34.845Z,86.34
2023-04-28T08:44:11.770Z,86.33
2023-04-28T08:46:42.778Z,85.99
2023-04-28T08:49:17.598Z,86.38
2023-04-28T08:51:51.682Z,86.38
2023-04-28T08:54:26.233Z,84.39
2023-04-28T08:56:54.299Z,85.33
2023-04-28T08:59:24.457Z,86.00
2023-04-28T09:01:54.650Z,86.61
2023-04-28T09:04:24.814Z,86.88
2023-04-28T09:06:55.276Z,87.79
2023-04-28T09:09:28.104Z,89.91
2023-04-28T09:12:01.445Z,88.90
2023-04-28T09:14:34.466Z,89.41
2023-04-28T09:17:06.113Z,90.00
2023-04-28T09:19:37.666Z,90.28
2023-04-28T09:22:24.680Z,89.32
2023-04-28T09:24:47.053Z,90.40
2023-04-28T09:27:18.503Z,90.05
2023-04-28T09:29:55.408Z,90.35
2023-04-28T09:32:27.094Z,89.91
2023-04-28T09:34:57.584Z,88.98
2023-04-28T09:37:30.035Z,88.86
2023-04-28T09:40:05.712Z,88.58
2023-04-28T09:42:41.123Z,90.02
2023-04-28T09:45:16.232Z,89.89
2023-04-28T09:47:48.402Z,88.94
2023-04-28T09:50:19.091Z,87.92
2023-04-28T09:52:51.950Z,88.18
2023-04-28T09:55:21.915Z,89.57
2023-04-28T09:57:54.913Z,90.46
2023-04-28T10:00:25.030Z,91.56
2023-04-28T10:02:55.094Z,90.84
2023-04-28T10:05:25.626Z,91.18
2023-04-28T10:07:56.216Z,89.97
2023-04-28T10:10:27.373Z,90.02
2023-04-28T10:12:57.938Z,88.92
2023-04-28T10:15:27.783Z,88.21
2023-04-28T10:17:58.384Z,88.76
2023-04-28T10:20:30.904Z,89.26
2023-04-28T10:23:19.997Z,92.28
2023-04-28T10:25:52.477Z,92.49
2023-04-28T10:28:22.217Z,92.37
2023-04-28T10:31:11.297Z,93.20
2023-04-28T10:33:43.074Z,92.94
2023-04-28T10:36:16.231Z,93.62
2023-04-28T10:39:15.280Z,91.39
2023-04-28T10:41:47.867Z,92.63
2023-04-28T10:44:35.752Z,92.67
2023-04-28T10:47:10.899Z,93.42
2023-04-28T10:50:01.883Z,93.85
2023-04-28T10:52:40.738Z,92.23
2023-04-28T10:55:32.404Z,91.29
2023-04-28T10:58:20.355Z,91.29
2023-04-28T11:00:51.868Z,91.42
2023-04-28T11:04:04.934Z,91.27
2023-04-28T11:06:37.122Z,90.91
2023-04-28T11:09:19.337Z,90.32
2023-04-28T11:12:06.794Z,89.93
2023-04-28T11:14:40.308Z,88.92
2023-04-28T11:17:14.005Z,89.35
2023-04-28T11:19:48.811Z,90.21
2023-04-28T11:22:21.849Z,89.60
2023-04-28T11:25:02.662Z,87.87
2023-04-28T11:27:34.603Z,89.21
2023-04-28T11:30:24.074Z,87.96
2023-04-28T11:32:54.406Z,88.16
2023-04-28T11:35:24.020Z,88.70
2023-04-28T11:38:04.655Z,88.29
2023-04-28T11:40:34.778Z,88.29
2023-04-28T11:43:04.690Z,87.99
2023-04-28T11:45:34.759Z,88.38
2023-04-28T11:48:09.521Z,87.41
2023-04-28T11:50:39.826Z,90.51
2023-04-28T11:53:09.676Z,89.85
2023-04-28T11:55:39.962Z,91.66
2023-04-28T11:58:25.061Z,91.36
2023-04-28T12:01:11.227Z,91.50
2023-04-28T12:03:48.542Z,92.42
2023-04-28T12:06:21.005Z,91.43
2023-04-28T12:08:52.502Z,93.34
2023-04-28T12:11:22.927Z,94.70
2023-04-28T12:14:07.911Z,95.46
2023-04-28T12:16:44.495Z,95.21
2023-04-28T12:19:15.454Z,94.98
2023-04-28T12:21:45.348Z,94.99
2023-04-28T12:24:24.598Z,95.38
2023-04-28T12:26:54.631Z,95.38
2023-04-28T12:29:39.226Z,95.66
2023-04-28T12:32:13.301Z,94.13
2023-04-28T12:34:43.858Z,94.69
2023-04-28T12:37:14.182Z,93.54
2023-04-28T12:39:44.462Z,93.21
2023-04-28T12:42:14.939Z,95.68
2023-04-28T12:44:46.103Z,95.74
2023-04-28T12:47:17.647Z,97.50
2023-04-28T12:49:48.844Z,96.62
2023-04-28T12:52:18.641Z,98.32
2023-04-28T12:54:49.582Z,96.66
2023-04-28T12:57:20.790Z,94.95
2023-04-28T12:59:52.728Z,95.49
2023-04-28T13:02:22.697Z,95.68
2023-04-28T13:04:53.605Z,94.95
2023-04-28T13:07:23.941Z,95.13
2023-04-28T13:09:53.806Z,94.76
2023-04-28T13:12:24.162Z,93.46
2023-04-28T13:14:54.012Z,92.33
2023-04-28T13:17:23.881Z,91.48
2023-04-28T13:19:53.765Z,91.12
2023-04-28T13:22:23.288Z,89.86
2023-04-28T13:24:53.181Z,89.66
2023-04-28T13:27:23.120Z,89.59
2023-04-28T13:29:53.001Z,89.22
2023-04-28T13:32:22.728Z,89.09
2023-04-28T13:34:52.943Z,89.30
2023-04-28T13:37:23.152Z,88.12
2023-04-28T13:39:52.955Z,87.53
2023-04-28T13:42:23.187Z,86.74
2023-04-28T13:44:53.094Z,86.65
2023-04-28T13:47:22.902Z,86.01
2023-04-28T13:49:53.033Z,84.40
2023-04-28T13:52:23.411Z,85.10
2023-04-28T13:54:53.613Z,85.39
2023-04-28T13:57:23.875Z,85.22
2023-04-28T13:59:53.895Z,87.11
2023-04-28T14:02:24.509Z,86.30
2023-04-28T14:04:54.556Z,86.16
2023-04-28T14:07:24.590Z,87.20
2023-04-28T14:09:54.506Z,86.59
2023-04-28T14:12:24.199Z,85.61
2023-04-28T14:14:54.009Z,86.69
2023-04-28T14:17:24.117Z,86.26
2023-04-28T14:19:54.028Z,88.47
2023-04-28T14:22:24.028Z,88.47
2023-04-28T14:24:53.832Z,88.62
2023-04-28T14:27:23.914Z,87.03
2023-04-28T14:29:53.726Z,85.35
2023-04-28T14:32:23.597Z,85.24
2023-04-28T14:34:53.659Z,84.07
2023-04-28T14:37:23.590Z,83.52
2023-04-28T14:39:53.691Z,83.97
2023-04-28T14:42:23.257Z,84.40
2023-04-28T14:44:54.539Z,85.56
2023-04-28T14:47:24.976Z,85.37
2023-04-28T14:49:55.447Z,84.02
2023-04-28T14:52:27.777Z,82.95
2023-04-28T14:54:58.435Z,84.11
2023-04-28T14:57:28.579Z,84.23
2023-04-28T14:59:58.652Z,84.54
2023-04-28T15:02:29.663Z,87.58
2023-04-28T15:05:00.042Z,90.36
2023-04-28T15:07:31.864Z,94.84
2023-04-28T15:10:02.039Z,96.36
2023-04-28T15:12:32.802Z,95.72
2023-04-28T15:15:02.667Z,96.37
2023-04-28T15:17:32.528Z,96.37
2023-04-28T15:20:03.781Z,94.59
2023-04-28T15:22:33.605Z,94.15
2023-04-28T15:25:03.493Z,93.79
2023-04-28T15:27:33.264Z,93.70
2023-04-28T15:30:03.393Z,94.18
2023-04-28T15:32:33.230Z,94.38
2023-04-28T15:35:03.169Z,95.18
2023-04-28T15:37:47.766Z,95.92
2023-04-28T15:40:19.359Z,94.23
2023-04-28T15:42:49.690Z,94.39
2023-04-28T15:45:22.691Z,95.94
2023-04-28T15:47:54.215Z,97.77
2023-04-28T15:50:24.432Z,97.73
2023-04-28T15:52:54.689Z,98.18
2023-04-28T15:55:25.687Z,98.11
2023-04-28T15:57:55.384Z,99.84
2023-04-28T16:00:25.053Z,99.58
2023-04-28T16:02:55.125Z,99.34
2023-04-28T16:05:25.160Z,98.78
2023-04-28T16:07:55.078Z,99.99
2023-04-28T16:10:24.750Z,99.22
2023-04-28T16:12:54.603Z,98.16
2023-04-28T16:15:24.460Z,97.07
2023-04-28T16:17:56.012Z,96.59
2023-04-28T16:20:25.959Z,96.49
2023-04-28T16:22:55.974Z,96.25
2023-04-28T16:25:25.966Z,96.31
2023-04-28T16:27:55.807Z,95.98
2023-04-28T16:30:25.490Z,96.91
2023-04-28T16:32:57.109Z,97.61
2023-04-28T16:35:27.003Z,98.99
2023-04-28T16:37:57.121Z,99.58
2023-04-28T16:40:26.751Z,99.72
2023-04-28T16:42:57.343Z,100.00
2023-04-28T16:45:27.151Z,100.00
2023-04-28T16:47:57.036Z,99.52
2023-04-28T16:50:27.061Z,99.55
2023-04-28T16:52:56.925Z,98.84
2023-04-28T16:55:26.903Z,98.17
2023-04-28T16:57:56.717Z,98.17
2023-04-28T17:00:26.908Z,99.70
2023-04-28T17:02:57.043Z,100.00
2023-04-28T17:05:27.067Z,99.42
2023-04-28T17:07:57.862Z,100.00
2023-04-28T17:10:27.965Z,100.00
2023-04-28T17:12:57.830Z,99.61
2023-04-28T17:15:27.693Z,100.00
2023-04-28T17:17:57.554Z,100.00
2023-04-28T17:20:27.202Z,100.00
2023-04-28T17:22:57.320Z,100.00
2023-04-28T17:25:27.203Z,100.00
2023-04-28T17:27:57.318Z,100.00
2023-04-28T17:30:26.880Z,100.00
2023-04-28T17:32:56.903Z,100.00
2023-04-28T17:35:26.958Z,100.00
2023-04-28T17:37:56.983Z,100.00
2023-04-28T17:40:27.953Z,100.00
2023-04-28T17:42:58.040Z,100.00
2023-04-28T17:45:27.945Z,100.00
2023-04-28T17:47:59.434Z,100.00
2023-04-28T17:50:30.059Z,100.00
2023-04-28T17:53:00.047Z,100.00
2023-04-28T17:55:29.949Z,100.00
2023-04-28T17:57:59.789Z,100.00
2023-04-28T18:00:29.320Z,100.00
2023-04-28T18:03:01.657Z,100.00
2023-04-28T18:05:32.162Z,100.00
2023-04-28T18:08:06.203Z,100.00
2023-04-28T18:10:36.221Z,100.00
2023-04-28T18:13:07.782Z,100.00
2023-04-28T18:15:37.621Z,100.00
2023-04-28T18:18:11.129Z,100.00
2023-04-28T18:20:42.928Z,100.00
2023-04-28T18:23:12.485Z,100.00
2023-04-28T18:25:43.691Z,100.00
2023-04-28T18:28:13.785Z,100.00
2023-04-28T18:30:42.879Z,100.00
2023-04-28T18:33:12.686Z,100.00
2023-04-28T18:35:42.546Z,100.00
2023-04-28T18:38:12.371Z,100.00
2023-04-28T18:40:42.343Z,100.00
2023-04-28T18:43:12.160Z,100.00
2023-04-28T18:45:42.949Z,100.00
2023-04-28T18:48:13.596Z,100.00
2023-04-28T18:50:44.576Z,100.00
2023-04-28T18:53:14.757Z,100.00
2023-04-28T18:55:44.798Z,100.00
2023-04-28T18:58:15.591Z,100.00
2023-04-28T19:00:46.009Z,100.00
2023-04-28T19:03:17.511Z,100.00
2023-04-28T19:05:47.642Z,100.00
2023-04-28T19:08:17.207Z,100.00
2023-04-28T19:10:48.880Z,100.00
2023-04-28T19:13:18.762Z,100.00
2023-04-28T19:15:48.575Z,100.00
2023-04-28T19:18:18.919Z,100.00
2023-04-28T19:20:50.558Z,100.00
2023-04-28T19:23:20.813Z,100.00
2023-04-28T19:25:50.697Z,100.00
2023-04-28T19:28:20.606Z,100.00
2023-04-28T19:30:50.852Z,100.00
2023-04-28T19:33:20.989Z,100.00
2023-04-28T19:35:51.532Z,100.00
2023-04-28T19:38:22.844Z,100.00
2023-04-28T19:41:01.005Z,100.00
2023-04-28T19:43:32.507Z,100.00
2023-04-28T19:46:05.508Z,100.00
2023-04-28T19:48:35.332Z,100.00
2023-04-28T19:51:07.182Z,100.00
2023-04-28T19:53:40.609Z,100.00
2023-04-28T19:56:12.276Z,100.00
2023-04-28T19:58:42.183Z,100.00
2023-04-28T20:01:12.064Z,100.00
2023-04-28T20:03:42.136Z,100.00
2023-04-28T20:06:17.545Z,100.00
2023-04-28T20:08:47.259Z,99.38
2023-04-28T20:11:17.446Z,100.00
2023-04-28T20:13:47.931Z,100.00
2023-04-28T20:16:19.547Z,100.00
2023-04-28T20:18:49.163Z,99.98
2023-04-28T20:21:20.053Z,100.00
2023-04-28T20:23:50.589Z,99.96
2023-04-28T20:26:20.639Z,98.95
2023-04-28T20:28:51.748Z,99.95
2023-04-28T20:31:22.963Z,100.00
2023-04-28T20:33:53.481Z,100.00
2023-04-28T20:36:23.422Z,100.00
2023-04-28T20:38:53.691Z,99.49
2023-04-28T20:41:23.865Z,97.37
2023-04-28T20:43:54.427Z,98.02
2023-04-28T20:46:24.455Z,97.53
2023-04-28T20:48:54.722Z,99.29
2023-04-28T20:51:24.554Z,98.45
2023-04-28T20:53:54.359Z,98.36
2023-04-28T20:56:24.129Z,97.34
2023-04-28T20:58:55.620Z,97.39
2023-04-28T21:01:25.132Z,97.22
2023-04-28T21:03:55.120Z,97.58
2023-04-28T21:06:24.712Z,98.68
2023-04-28T21:08:54.991Z,98.99
2023-04-28T21:11:24.540Z,97.79
2023-04-28T21:13:54.364Z,98.62
2023-04-28T21:16:24.108Z,98.42
2023-04-28T21:18:54.524Z,97.49
2023-04-28T21:21:24.057Z,97.00
2023-04-28T21:23:54.084Z,97.45
2023-04-28T21:26:24.273Z,97.12
2023-04-28T21:28:54.589Z,96.71
2023-04-28T21:31:25.334Z,95.34
2023-04-28T21:33:55.675Z,95.48
2023-04-28T21:36:25.491Z,96.97
2023-04-28T21:38:55.403Z,96.40
2023-04-28T21:41:25.439Z,97.64
2023-04-28T21:43:55.954Z,97.15
2023-04-28T21:46:25.926Z,96.54
2023-04-28T21:48:56.177Z,96.64
2023-04-28T21:51:26.229Z,96.22
2023-04-28T21:53:56.066Z,96.26
2023-04-28T21:56:25.578Z,97.26
2023-04-28T21:58:55.675Z,95.14
2023-04-28T22:01:25.635Z,95.24
2023-04-28T22:03:56.154Z,96.09
2023-04-28T22:06:25.883Z,97.02
2023-04-28T22:08:57.127Z,97.33
2023-04-28T22:11:27.036Z,99.33
2023-04-28T22:13:56.890Z,97.11
2023-04-28T22:16:26.690Z,97.11
2023-04-28T22:18:56.927Z,96.90
2023-04-28T22:21:28.309Z,96.90
2023-04-28T22:23:58.176Z,96.13
2023-04-28T22:26:31.088Z,96.29
2023-04-28T22:29:02.114Z,95.26
2023-04-28T22:31:32.206Z,95.69
2023-04-28T22:34:02.065Z,95.77
2023-04-28T22:36:32.564Z,95.49
2023-04-28T22:39:02.117Z,94.35
2023-04-28T22:41:32.078Z,93.77
2023-04-28T22:44:01.948Z,93.35
2023-04-28T22:46:31.805Z,92.77
2023-04-28T22:49:02.025Z,92.12
2023-04-28T22:51:31.796Z,91.48
2023-04-28T22:54:01.859Z,92.24
2023-04-28T22:56:31.708Z,93.77
2023-04-28T22:59:01.532Z,93.46
2023-04-28T23:01:31.895Z,93.04
2023-04-28T23:04:01.972Z,93.15
2023-04-28T23:06:32.192Z,93.58
2023-04-28T23:09:03.604Z,92.72
2023-04-28T23:11:33.453Z,91.73
2023-04-28T23:14:03.352Z,92.26
2023-04-28T23:16:33.260Z,91.63
2023-04-28T23:19:03.186Z,92.49
2023-04-28T23:21:33.010Z,91.89
2023-04-28T23:24:02.958Z,91.55
2023-04-28T23:26:32.898Z,93.05
2023-04-28T23:29:02.741Z,93.05
2023-04-28T23:31:33.363Z,92.52
2023-04-28T23:34:05.176Z,93.07
2023-04-28T23:36:35.565Z,91.73
2023-04-28T23:39:05.441Z,91.88
2023-04-28T23:41:35.381Z,92.54
2023-04-28T23:44:06.484Z,91.99
2023-04-28T23:46:36.724Z,92.14
2023-04-28T23:49:06.525Z,91.45
2023-04-28T23:51:36.640Z,91.12
2023-04-28T23:54:09.232Z,93.11
2023-04-28T23:56:39.090Z,92.36
2023-04-28T23:59:08.966Z,90.64
